createdAt,value
2017-05-18T00:00:55.084Z,975.53
2017-05-18T00:01:58.222Z,975.50
2017-05-18T00:03:00.589Z,975.51
2017-05-18T00:04:02.950Z,975.49
2017-05-18T00:05:05.320Z,975.49
2017-05-18T00:06:07.681Z,975.48
2017-05-18T00:07:10.659Z,975.50
2017-05-18T00:08:13.063Z,975.46
2017-05-18T00:09:15.455Z,975.51
2017-05-18T00:10:17.813Z,975.52
2017-05-18T00:11:20.207Z,975.51
2017-05-18T00:12:23.317Z,975.51
2017-05-18T00:13:25.715Z,975.52
2017-05-18T00:14:28.076Z,975.50
2017-05-18T00:15:30.433Z,975.54
2017-05-18T00:16:32.807Z,975.54
2017-05-18T00:17:35.802Z,975.51
2017-05-18T00:18:38.163Z,975.54
2017-05-18T00:19:40.535Z,975.53
2017-05-18T00:20:42.893Z,975.58
2017-05-18T00:21:45.261Z,975.53
2017-05-18T00:22:48.338Z,975.58
2017-05-18T00:23:50.728Z,975.62
2017-05-18T00:24:53.087Z,975.60
2017-05-18T00:25:55.452Z,975.57
2017-05-18T00:26:58.059Z,975.59
2017-05-18T00:28:01.144Z,975.59
2017-05-18T00:29:03.505Z,975.61
2017-05-18T00:30:05.916Z,975.62
2017-05-18T00:31:08.289Z,975.61
2017-05-18T00:32:10.687Z,975.61
2017-05-18T00:33:13.639Z,975.61
2017-05-18T00:34:16.022Z,975.61
2017-05-18T00:35:18.420Z,975.65
2017-05-18T00:36:21.015Z,975.63
2017-05-18T00:37:23.393Z,975.55
2017-05-18T00:38:26.372Z,975.61
2017-05-18T00:39:28.766Z,975.65
2017-05-18T00:40:31.132Z,975.62
2017-05-18T00:41:33.733Z,975.65
2017-05-18T00:42:36.148Z,975.67
2017-05-18T00:43:39.267Z,975.65
2017-05-18T00:44:41.634Z,975.69
2017-05-18T00:45:44.230Z,975.67
2017-05-18T00:46:46.622Z,975.72
2017-05-18T00:47:49.032Z,975.69
2017-05-18T00:48:52.010Z,975.73
2017-05-18T00:49:54.403Z,975.70
2017-05-18T00:50:56.783Z,975.71
2017-05-18T00:51:59.179Z,975.68
2017-05-18T00:53:01.779Z,975.75
2017-05-18T00:54:04.969Z,975.73
2017-05-18T00:55:07.356Z,975.71
2017-05-18T00:56:09.725Z,975.67
2017-05-18T00:57:12.078Z,975.70
2017-05-18T00:58:14.667Z,975.68
2017-05-18T00:59:17.829Z,975.73
2017-05-18T01:00:20.197Z,975.71
2017-05-18T01:01:22.566Z,975.73
2017-05-18T01:02:24.982Z,975.71
2017-05-18T01:03:27.340Z,975.73
2017-05-18T01:04:30.310Z,975.74
2017-05-18T01:05:32.672Z,975.67
2017-05-18T01:06:35.037Z,975.71
2017-05-18T01:07:37.430Z,975.71
2017-05-18T01:08:39.784Z,975.72
2017-05-18T01:09:42.734Z,975.69
2017-05-18T01:10:45.121Z,975.74
2017-05-18T01:11:47.503Z,975.73
2017-05-18T01:12:49.854Z,975.69
2017-05-18T01:13:52.258Z,975.72
2017-05-18T01:14:55.220Z,975.71
2017-05-18T01:15:57.576Z,975.71
2017-05-18T01:16:59.939Z,975.74
2017-05-18T01:18:02.336Z,975.74
2017-05-18T01:19:04.682Z,975.69
2017-05-18T01:20:07.672Z,975.77
2017-05-18T01:21:10.064Z,975.75
2017-05-18T01:22:12.473Z,975.75
2017-05-18T01:23:14.829Z,975.73
2017-05-18T01:24:17.210Z,975.78
2017-05-18T01:25:20.183Z,975.77
2017-05-18T01:26:22.586Z,975.78
2017-05-18T01:27:24.962Z,975.82
2017-05-18T01:28:27.330Z,975.82
2017-05-18T01:29:29.706Z,975.83
2017-05-18T01:30:34.560Z,975.80
2017-05-18T01:31:36.962Z,975.84
2017-05-18T01:32:39.338Z,975.82
2017-05-18T01:33:41.722Z,975.79
2017-05-18T01:34:44.085Z,975.81
2017-05-18T01:35:47.050Z,975.81
2017-05-18T01:36:49.442Z,975.82
2017-05-18T01:37:51.823Z,975.83
2017-05-18T01:38:54.188Z,975.84
2017-05-18T01:39:56.561Z,975.82
2017-05-18T01:41:01.630Z,975.83
2017-05-18T01:42:04.013Z,975.81
2017-05-18T01:43:06.403Z,975.84
2017-05-18T01:44:08.791Z,975.84
2017-05-18T01:45:11.149Z,975.83
2017-05-18T01:46:14.220Z,975.84
2017-05-18T01:47:16.577Z,975.83
2017-05-18T01:48:18.981Z,975.89
2017-05-18T01:49:21.339Z,975.90
2017-05-18T01:50:24.909Z,975.88
2017-05-18T01:52:32.446Z,975.89
2017-05-18T01:53:34.807Z,975.92
2017-05-18T01:54:37.179Z,975.91
2017-05-18T01:55:39.551Z,975.96
2017-05-18T01:56:42.603Z,975.96
2017-05-18T01:57:44.967Z,976.01
2017-05-18T01:58:47.359Z,975.94
2017-05-18T01:59:49.705Z,975.98
2017-05-18T02:00:52.076Z,975.96
2017-05-18T02:01:55.043Z,975.95
2017-05-18T02:02:57.618Z,976.04
2017-05-18T02:03:59.993Z,975.96
2017-05-18T02:05:02.379Z,975.96
2017-05-18T02:06:04.744Z,975.98
2017-05-18T02:07:07.871Z,975.97
2017-05-18T02:08:10.225Z,975.98
2017-05-18T02:09:12.603Z,976.01
2017-05-18T02:10:14.988Z,976.04
2017-05-18T02:11:17.349Z,976.05
2017-05-18T02:12:20.318Z,976.07
2017-05-18T02:13:22.683Z,976.09
2017-05-18T02:14:25.048Z,976.05
2017-05-18T02:15:27.419Z,976.06
2017-05-18T02:16:29.775Z,976.07
2017-05-18T02:17:34.857Z,976.08
2017-05-18T02:18:37.219Z,976.06
2017-05-18T02:19:39.610Z,976.08
2017-05-18T02:20:41.969Z,976.02
2017-05-18T02:21:44.326Z,976.07
2017-05-18T02:22:49.202Z,976.06
2017-05-18T02:23:51.603Z,976.06
2017-05-18T02:24:53.963Z,976.08
2017-05-18T02:25:56.331Z,976.10
2017-05-18T02:26:58.696Z,976.10
2017-05-18T02:28:01.810Z,976.07
2017-05-18T02:29:04.183Z,976.09
2017-05-18T02:30:06.564Z,976.12
2017-05-18T02:31:08.920Z,976.10
2017-05-18T02:32:11.287Z,976.09
2017-05-18T02:33:14.343Z,976.08
2017-05-18T02:34:16.732Z,976.10
2017-05-18T02:35:19.098Z,976.12
2017-05-18T02:36:21.464Z,976.09
2017-05-18T02:37:23.831Z,976.11
2017-05-18T02:38:26.861Z,976.11
2017-05-18T02:39:29.230Z,976.16
2017-05-18T02:40:31.609Z,976.12
2017-05-18T02:41:33.969Z,976.15
2017-05-18T02:42:36.335Z,976.17
2017-05-18T02:43:39.653Z,976.16
2017-05-18T02:44:42.041Z,976.17
2017-05-18T02:45:44.421Z,976.20
2017-05-18T02:46:46.790Z,976.17
2017-05-18T02:47:49.151Z,976.19
2017-05-18T02:48:52.128Z,976.19
2017-05-18T02:49:54.506Z,976.21
2017-05-18T02:50:56.890Z,976.21
2017-05-18T02:51:59.282Z,976.26
2017-05-18T02:53:01.661Z,976.23
2017-05-18T02:54:04.780Z,976.28
2017-05-18T02:55:07.161Z,976.20
2017-05-18T02:56:09.538Z,976.25
2017-05-18T02:57:11.899Z,976.27
2017-05-18T02:58:14.282Z,976.23
2017-05-18T02:59:19.166Z,976.24
2017-05-18T03:00:21.544Z,976.26
2017-05-18T03:01:23.929Z,976.26
2017-05-18T03:02:26.307Z,976.29
2017-05-18T03:03:28.869Z,976.30
2017-05-18T03:04:31.830Z,976.27
2017-05-18T03:05:34.209Z,976.27
2017-05-18T03:06:36.617Z,976.28
2017-05-18T03:07:38.933Z,976.27
2017-05-18T03:08:41.306Z,976.28
2017-05-18T03:09:44.264Z,976.30
2017-05-18T03:10:46.654Z,976.30
2017-05-18T03:11:49.006Z,976.30
2017-05-18T03:12:51.381Z,976.29
2017-05-18T03:13:53.751Z,976.34
2017-05-18T03:14:56.720Z,976.33
2017-05-18T03:15:59.098Z,976.38
2017-05-18T03:17:01.462Z,976.37
2017-05-18T03:18:03.844Z,976.41
2017-05-18T03:19:06.211Z,976.37
2017-05-18T03:20:09.169Z,976.35
2017-05-18T03:21:11.551Z,976.40
2017-05-18T03:22:13.910Z,976.39
2017-05-18T03:23:16.283Z,976.44
2017-05-18T03:24:18.678Z,976.35
2017-05-18T03:25:21.654Z,976.35
2017-05-18T03:26:24.053Z,976.39
2017-05-18T03:27:26.619Z,976.38
2017-05-18T03:28:29.010Z,976.42
2017-05-18T03:29:31.368Z,976.43
2017-05-18T03:30:34.549Z,976.43
2017-05-18T03:31:37.139Z,976.43
2017-05-18T03:32:39.531Z,976.38
2017-05-18T03:33:41.899Z,976.38
2017-05-18T03:34:44.529Z,976.37
2017-05-18T03:35:47.437Z,976.36
2017-05-18T03:36:49.802Z,976.37
2017-05-18T03:37:52.179Z,976.40
2017-05-18T03:38:54.546Z,976.44
2017-05-18T03:39:56.937Z,976.39
2017-05-18T03:40:59.917Z,976.42
2017-05-18T03:42:02.312Z,976.41
2017-05-18T03:43:04.691Z,976.42
2017-05-18T03:44:07.087Z,976.44
2017-05-18T03:45:09.474Z,976.44
2017-05-18T03:46:12.608Z,976.47
2017-05-18T03:47:14.981Z,976.44
2017-05-18T03:48:17.368Z,976.44
2017-05-18T03:49:19.747Z,976.45
2017-05-18T03:50:22.133Z,976.44
2017-05-18T03:51:25.101Z,976.49
2017-05-18T03:52:27.499Z,976.47
2017-05-18T03:53:29.887Z,976.47
2017-05-18T03:54:32.287Z,976.42
2017-05-18T03:55:34.647Z,976.46
2017-05-18T03:56:37.682Z,976.48
2017-05-18T03:57:40.022Z,976.47
2017-05-18T03:58:42.416Z,976.53
2017-05-18T03:59:44.787Z,976.48
2017-05-18T04:00:47.174Z,976.52
2017-05-18T04:02:50.732Z,976.53
2017-05-18T04:03:53.097Z,976.58
2017-05-18T04:04:55.478Z,976.62
2017-05-18T04:05:57.876Z,976.60
2017-05-18T04:07:00.249Z,976.55
2017-05-18T04:08:03.318Z,976.59
2017-05-18T04:09:05.706Z,976.59
2017-05-18T04:10:08.077Z,976.58
2017-05-18T04:11:10.460Z,976.60
2017-05-18T04:12:12.823Z,976.57
2017-05-18T04:13:15.811Z,976.60
2017-05-18T04:14:18.191Z,976.57
2017-05-18T04:15:20.574Z,976.64
2017-05-18T04:16:22.957Z,976.62
2017-05-18T04:17:25.321Z,976.60
2017-05-18T04:18:28.314Z,976.57
2017-05-18T04:19:30.691Z,976.62
2017-05-18T04:20:33.085Z,976.59
2017-05-18T04:21:35.470Z,976.57
2017-05-18T04:22:37.852Z,976.57
2017-05-18T04:23:40.990Z,976.55
2017-05-18T04:24:43.377Z,976.56
2017-05-18T04:25:45.975Z,976.57
2017-05-18T04:26:48.351Z,976.58
2017-05-18T04:27:50.930Z,976.54
2017-05-18T04:28:53.914Z,976.57
2017-05-18T04:29:56.299Z,976.55
2017-05-18T04:30:58.675Z,976.55
2017-05-18T04:32:01.064Z,976.53
2017-05-18T04:33:03.465Z,976.55
2017-05-18T04:34:06.457Z,976.56
2017-05-18T04:35:08.905Z,976.56
2017-05-18T04:36:11.230Z,976.55
2017-05-18T04:37:13.590Z,976.54
2017-05-18T04:38:15.968Z,976.52
2017-05-18T04:39:18.962Z,976.50
2017-05-18T04:40:21.343Z,976.50
2017-05-18T04:41:23.731Z,976.48
2017-05-18T04:42:26.098Z,976.47
2017-05-18T04:43:28.452Z,976.44
2017-05-18T04:44:31.542Z,976.37
2017-05-18T04:45:33.918Z,976.41
2017-05-18T04:46:36.274Z,976.35
2017-05-18T04:47:38.638Z,976.35
2017-05-18T04:48:41.022Z,976.34
2017-05-18T04:49:44.087Z,976.36
2017-05-18T04:50:46.458Z,976.34
2017-05-18T04:51:48.835Z,976.31
2017-05-18T04:52:51.219Z,976.31
2017-05-18T04:53:53.575Z,976.30
2017-05-18T04:54:56.715Z,976.25
2017-05-18T04:55:59.088Z,976.21
2017-05-18T04:57:01.475Z,976.27
2017-05-18T04:58:03.852Z,976.28
2017-05-18T04:59:06.228Z,976.21
2017-05-18T05:00:09.354Z,976.26
2017-05-18T05:01:11.745Z,976.24
2017-05-18T05:02:14.124Z,976.23
2017-05-18T05:03:16.503Z,976.26
2017-05-18T05:04:18.897Z,976.27
2017-05-18T05:05:23.821Z,976.28
2017-05-18T05:06:26.203Z,976.23
2017-05-18T05:07:28.598Z,976.24
2017-05-18T05:08:30.958Z,976.18
2017-05-18T05:09:33.344Z,976.23
2017-05-18T05:10:36.488Z,976.19
2017-05-18T05:11:39.079Z,976.19
2017-05-18T05:12:41.473Z,976.21
2017-05-18T05:13:43.831Z,976.22
2017-05-18T05:14:46.233Z,976.15
2017-05-18T05:15:49.222Z,976.20
2017-05-18T05:16:51.605Z,976.18
2017-05-18T05:17:53.983Z,976.18
2017-05-18T05:18:56.353Z,976.16
2017-05-18T05:19:58.949Z,976.13
2017-05-18T05:21:02.091Z,976.17
2017-05-18T05:22:04.450Z,976.14
2017-05-18T05:23:06.842Z,976.13
2017-05-18T05:24:09.234Z,976.11
2017-05-18T05:25:11.627Z,976.10
2017-05-18T05:26:14.759Z,976.09
2017-05-18T05:27:17.115Z,976.08
2017-05-18T05:28:19.515Z,976.06
2017-05-18T05:29:21.903Z,976.07
2017-05-18T05:30:24.272Z,976.07
2017-05-18T05:31:27.262Z,976.12
2017-05-18T05:32:29.620Z,976.08
2017-05-18T05:33:32.011Z,976.12
2017-05-18T05:34:34.375Z,976.08
2017-05-18T05:35:36.728Z,976.07
2017-05-18T05:36:39.699Z,976.14
2017-05-18T05:37:42.092Z,976.05
2017-05-18T05:38:44.436Z,976.05
2017-05-18T05:39:46.810Z,976.04
2017-05-18T05:40:49.170Z,976.00
2017-05-18T05:41:52.123Z,976.02
2017-05-18T05:42:54.490Z,976.00
2017-05-18T05:43:56.853Z,976.00
2017-05-18T05:44:59.237Z,975.96
2017-05-18T05:46:01.591Z,976.03
2017-05-18T05:47:04.569Z,976.02
2017-05-18T05:48:06.928Z,976.02
2017-05-18T05:49:09.289Z,975.99
2017-05-18T05:50:11.646Z,975.96
2017-05-18T05:51:14.019Z,975.99
2017-05-18T05:52:16.980Z,975.99
2017-05-18T05:53:19.339Z,975.98
2017-05-18T05:54:21.714Z,975.96
2017-05-18T05:55:24.084Z,975.96
2017-05-18T05:56:26.461Z,975.91
2017-05-18T05:57:29.418Z,975.92
2017-05-18T05:58:31.786Z,975.92
2017-05-18T05:59:34.143Z,975.96
2017-05-18T06:00:36.515Z,975.92
2017-05-18T06:01:38.882Z,975.94
2017-05-18T06:02:41.937Z,975.91
2017-05-18T06:03:44.301Z,975.96
2017-05-18T06:04:46.665Z,975.92
2017-05-18T06:05:49.027Z,975.89
2017-05-18T06:06:51.396Z,975.87
2017-05-18T06:07:54.452Z,975.87
2017-05-18T06:08:56.807Z,975.83
2017-05-18T06:09:59.173Z,975.82
2017-05-18T06:11:01.556Z,975.82
2017-05-18T06:12:03.919Z,975.81
2017-05-18T06:13:06.976Z,975.77
2017-05-18T06:14:09.333Z,975.80
2017-05-18T06:15:11.699Z,975.80
2017-05-18T06:16:14.049Z,975.74
2017-05-18T06:17:16.411Z,975.76
2017-05-18T06:18:19.374Z,975.73
2017-05-18T06:19:21.738Z,975.70
2017-05-18T06:20:24.091Z,975.72
2017-05-18T06:21:26.452Z,975.71
2017-05-18T06:22:28.815Z,975.67
2017-05-18T06:23:31.777Z,975.65
2017-05-18T06:24:34.135Z,975.69
2017-05-18T06:25:36.493Z,975.68
2017-05-18T06:26:38.858Z,975.65
2017-05-18T06:27:41.216Z,975.68
2017-05-18T06:28:44.231Z,975.64
2017-05-18T06:29:46.585Z,975.62
2017-05-18T06:30:48.942Z,975.65
2017-05-18T06:31:51.310Z,975.63
2017-05-18T06:32:53.670Z,975.62
2017-05-18T06:33:56.631Z,975.63
2017-05-18T06:34:58.993Z,975.59
2017-05-18T06:36:01.354Z,975.55
2017-05-18T06:37:03.709Z,975.54
2017-05-18T06:38:06.063Z,975.54
2017-05-18T06:39:09.152Z,975.46
2017-05-18T06:40:11.491Z,975.46
2017-05-18T06:41:13.842Z,975.42
2017-05-18T06:42:16.201Z,975.40
2017-05-18T06:43:18.559Z,975.44
2017-05-18T06:44:21.720Z,975.37
2017-05-18T06:45:24.077Z,975.40
2017-05-18T06:46:26.429Z,975.37
2017-05-18T06:47:28.789Z,975.39
2017-05-18T06:48:31.151Z,975.36
2017-05-18T06:49:34.271Z,975.36
2017-05-18T06:50:36.627Z,975.34
2017-05-18T06:51:38.977Z,975.34
2017-05-18T06:52:41.341Z,975.35
2017-05-18T06:53:43.708Z,975.32
2017-05-18T06:54:46.756Z,975.37
2017-05-18T06:55:49.110Z,975.34
2017-05-18T06:56:51.477Z,975.31
2017-05-18T06:57:53.838Z,975.30
2017-05-18T06:58:56.195Z,975.31
2017-05-18T06:59:59.247Z,975.33
2017-05-18T07:01:01.618Z,975.35
2017-05-18T07:02:03.976Z,975.28
2017-05-18T07:03:06.335Z,975.30
2017-05-18T07:04:08.691Z,975.28
2017-05-18T07:05:11.758Z,975.31
2017-05-18T07:06:14.104Z,975.28
2017-05-18T07:07:16.465Z,975.26
2017-05-18T07:08:18.821Z,975.28
2017-05-18T07:09:21.181Z,975.27
2017-05-18T07:10:24.141Z,975.28
2017-05-18T07:11:26.492Z,975.27
2017-05-18T07:12:28.851Z,975.24
2017-05-18T07:13:31.417Z,975.27
2017-05-18T07:14:33.764Z,975.21
2017-05-18T07:15:36.719Z,975.25
2017-05-18T07:16:39.072Z,975.25
2017-05-18T07:17:41.437Z,975.21
2017-05-18T07:18:43.794Z,975.25
2017-05-18T07:19:46.159Z,975.22
2017-05-18T07:20:49.212Z,975.22
2017-05-18T07:21:51.570Z,975.24
2017-05-18T07:22:53.923Z,975.22
2017-05-18T07:23:56.280Z,975.25
2017-05-18T07:24:58.642Z,975.23
2017-05-18T07:26:01.703Z,975.22
2017-05-18T07:27:04.060Z,975.20
2017-05-18T07:28:06.421Z,975.21
2017-05-18T07:29:08.782Z,975.11
2017-05-18T07:30:11.145Z,975.17
2017-05-18T07:31:14.108Z,975.15
2017-05-18T07:32:16.470Z,975.15
2017-05-18T07:33:18.823Z,975.14
2017-05-18T07:34:21.185Z,975.12
2017-05-18T07:35:23.539Z,975.11
2017-05-18T07:36:26.605Z,975.12
2017-05-18T07:37:28.959Z,975.12
2017-05-18T07:38:31.322Z,975.12
2017-05-18T07:39:33.680Z,975.09
2017-05-18T07:40:36.049Z,975.08
2017-05-18T07:41:39.027Z,975.08
2017-05-18T07:42:41.374Z,975.04
2017-05-18T07:43:43.732Z,975.05
2017-05-18T07:44:46.088Z,975.02
2017-05-18T07:45:48.445Z,975.05
2017-05-18T07:46:51.407Z,975.05
2017-05-18T07:48:36.977Z,975.00
2017-05-18T07:49:39.339Z,974.98
2017-05-18T07:50:41.692Z,974.98
2017-05-18T07:51:44.064Z,974.94
2017-05-18T07:52:47.119Z,974.97
2017-05-18T07:53:49.470Z,974.96
2017-05-18T07:54:51.830Z,974.94
2017-05-18T07:55:54.190Z,974.91
2017-05-18T07:56:56.563Z,974.92
2017-05-18T07:57:59.468Z,974.88
2017-05-18T07:59:01.816Z,974.91
2017-05-18T08:00:04.193Z,974.84
2017-05-18T08:01:06.541Z,974.87
2017-05-18T08:02:08.898Z,974.88
2017-05-18T08:03:11.971Z,974.87
2017-05-18T08:04:14.327Z,974.90
2017-05-18T08:05:16.678Z,974.80
2017-05-18T08:06:19.040Z,974.84
2017-05-18T08:07:21.399Z,974.80
2017-05-18T08:08:24.454Z,974.78
2017-05-18T08:09:26.815Z,974.83
2017-05-18T08:10:29.190Z,974.77
2017-05-18T08:11:31.542Z,974.77
2017-05-18T08:12:33.898Z,974.80
2017-05-18T08:13:36.856Z,974.73
2017-05-18T08:14:39.217Z,974.78
2017-05-18T08:15:41.573Z,974.79
2017-05-18T08:16:43.931Z,974.80
2017-05-18T08:17:46.302Z,974.78
2017-05-18T08:18:49.362Z,974.77
2017-05-18T08:19:51.716Z,974.79
2017-05-18T08:20:54.089Z,974.81
2017-05-18T08:21:56.441Z,974.73
2017-05-18T08:22:58.801Z,974.76
2017-05-18T08:24:01.764Z,974.78
2017-05-18T08:25:04.115Z,974.80
2017-05-18T08:26:06.473Z,974.73
2017-05-18T08:27:08.830Z,974.77
2017-05-18T08:28:11.188Z,974.75
2017-05-18T08:29:14.154Z,974.72
2017-05-18T08:30:16.515Z,974.76
2017-05-18T08:31:18.870Z,974.78
2017-05-18T08:32:21.222Z,974.70
2017-05-18T08:33:23.603Z,974.76
2017-05-18T08:34:26.535Z,974.73
2017-05-18T08:35:28.893Z,974.75
2017-05-18T08:36:31.457Z,974.78
2017-05-18T08:37:33.820Z,974.75
2017-05-18T08:38:36.178Z,974.76
2017-05-18T08:39:39.132Z,974.77
2017-05-18T08:40:41.496Z,974.72
2017-05-18T08:41:43.860Z,974.71
2017-05-18T08:42:46.214Z,974.75
2017-05-18T08:43:48.576Z,974.73
2017-05-18T08:44:51.532Z,974.73
2017-05-18T08:45:53.891Z,974.75
2017-05-18T08:46:56.256Z,974.77
2017-05-18T08:47:58.609Z,974.73
2017-05-18T08:49:00.969Z,974.72
2017-05-18T08:50:03.922Z,974.69
2017-05-18T08:51:06.282Z,974.71
2017-05-18T08:52:08.638Z,974.71
2017-05-18T08:53:10.999Z,974.72
2017-05-18T08:54:13.363Z,974.69
2017-05-18T08:55:16.322Z,974.67
2017-05-18T08:56:18.674Z,974.70
2017-05-18T08:57:21.037Z,974.62
2017-05-18T08:58:23.389Z,974.66
2017-05-18T08:59:25.753Z,974.67
2017-05-18T09:00:28.712Z,974.66
2017-05-18T09:01:31.072Z,974.63
2017-05-18T09:02:33.470Z,974.64
2017-05-18T09:03:35.782Z,974.64
2017-05-18T09:04:38.141Z,974.62
2017-05-18T09:05:41.098Z,974.61
2017-05-18T09:06:43.461Z,974.57
2017-05-18T09:07:45.814Z,974.57
2017-05-18T09:08:48.179Z,974.56
2017-05-18T09:09:50.535Z,974.57
2017-05-18T09:10:53.495Z,974.57
2017-05-18T09:11:55.849Z,974.55
2017-05-18T09:12:58.205Z,974.51
2017-05-18T09:14:00.558Z,974.50
2017-05-18T09:15:02.916Z,974.53
2017-05-18T09:16:05.980Z,974.52
2017-05-18T09:17:08.338Z,974.54
2017-05-18T09:18:10.697Z,974.56
2017-05-18T09:19:13.050Z,974.54
2017-05-18T09:20:15.414Z,974.54
2017-05-18T09:21:18.378Z,974.54
2017-05-18T09:22:20.734Z,974.50
2017-05-18T09:23:23.095Z,974.51
2017-05-18T09:24:25.453Z,974.49
2017-05-18T09:25:27.812Z,974.48
2017-05-18T09:26:30.772Z,974.49
2017-05-18T09:27:33.130Z,974.46
2017-05-18T09:28:35.490Z,974.50
2017-05-18T09:29:37.848Z,974.49
2017-05-18T09:30:40.206Z,974.50
2017-05-18T09:31:43.260Z,974.52
2017-05-18T09:32:45.615Z,974.57
2017-05-18T09:33:47.971Z,974.57
2017-05-18T09:34:50.332Z,974.54
2017-05-18T09:35:52.699Z,974.52
2017-05-18T09:36:55.658Z,974.54
2017-05-18T09:37:58.009Z,974.56
2017-05-18T09:39:00.363Z,974.53
2017-05-18T09:40:02.731Z,974.50
2017-05-18T09:41:05.080Z,974.53
2017-05-18T09:42:08.036Z,974.49
2017-05-18T09:43:10.401Z,974.50
2017-05-18T09:44:12.806Z,974.45
2017-05-18T09:45:15.117Z,974.50
2017-05-18T09:46:17.475Z,974.47
2017-05-18T09:47:20.440Z,974.52
2017-05-18T09:48:22.799Z,974.47
2017-05-18T09:49:25.150Z,974.51
2017-05-18T09:50:27.513Z,974.50
2017-05-18T09:51:29.931Z,974.46
2017-05-18T09:52:32.830Z,974.51
2017-05-18T09:53:35.192Z,974.52
2017-05-18T09:54:37.552Z,974.55
2017-05-18T09:55:39.906Z,974.55
2017-05-18T09:56:42.269Z,974.50
2017-05-18T09:57:45.240Z,974.52
2017-05-18T09:58:47.600Z,974.53
2017-05-18T09:59:49.951Z,974.52
2017-05-18T10:00:52.321Z,974.55
2017-05-18T10:01:54.665Z,974.56
2017-05-18T10:02:57.725Z,974.55
2017-05-18T10:04:00.079Z,974.58
2017-05-18T10:05:02.437Z,974.59
2017-05-18T10:06:04.802Z,974.61
2017-05-18T10:07:07.169Z,974.62
2017-05-18T10:08:10.126Z,974.64
2017-05-18T10:09:12.487Z,974.62
2017-05-18T10:10:14.848Z,974.65
2017-05-18T10:11:17.196Z,974.69
2017-05-18T10:12:19.560Z,974.69
2017-05-18T10:13:22.524Z,974.71
2017-05-18T10:14:24.875Z,974.67
2017-05-18T10:15:27.235Z,974.70
2017-05-18T10:16:29.648Z,974.69
2017-05-18T10:17:31.967Z,974.72
2017-05-18T10:18:35.030Z,974.72
2017-05-18T10:19:37.384Z,974.72
2017-05-18T10:20:39.746Z,974.69
2017-05-18T10:21:42.110Z,974.73
2017-05-18T10:22:44.462Z,974.70
2017-05-18T10:23:47.415Z,974.73
2017-05-18T10:24:49.784Z,974.74
2017-05-18T10:25:52.149Z,974.82
2017-05-18T10:26:54.505Z,974.79
2017-05-18T10:27:56.866Z,974.82
2017-05-18T10:28:59.824Z,974.83
2017-05-18T10:30:02.180Z,974.85
2017-05-18T10:31:04.545Z,974.85
2017-05-18T10:32:06.901Z,974.84
2017-05-18T10:33:09.267Z,974.85
2017-05-18T10:34:12.326Z,974.83
2017-05-18T10:35:14.688Z,974.88
2017-05-18T10:36:17.044Z,974.87
2017-05-18T10:37:19.399Z,974.85
2017-05-18T10:38:21.764Z,974.88
2017-05-18T10:39:24.716Z,974.89
2017-05-18T10:40:27.070Z,974.86
2017-05-18T10:41:29.434Z,974.88
2017-05-18T10:42:31.792Z,974.85
2017-05-18T10:43:34.153Z,974.84
2017-05-18T10:44:37.109Z,974.85
2017-05-18T10:45:39.470Z,974.82
2017-05-18T10:46:41.831Z,974.86
2017-05-18T10:47:44.187Z,974.85
2017-05-18T10:48:46.544Z,974.82
2017-05-18T10:49:49.598Z,974.83
2017-05-18T10:50:51.959Z,974.79
2017-05-18T10:51:54.325Z,974.77
2017-05-18T10:52:56.678Z,974.80
2017-05-18T10:53:59.032Z,974.80
2017-05-18T10:55:01.935Z,974.81
2017-05-18T10:56:04.291Z,974.78
2017-05-18T10:57:06.645Z,974.78
2017-05-18T10:58:09.014Z,974.74
2017-05-18T10:59:11.367Z,974.74
2017-05-18T11:00:14.326Z,974.76
2017-05-18T11:01:16.694Z,974.76
2017-05-18T11:02:19.047Z,974.72
2017-05-18T11:03:21.403Z,974.76
2017-05-18T11:04:23.767Z,974.72
2017-05-18T11:05:26.829Z,974.72
2017-05-18T11:06:29.188Z,974.71
2017-05-18T11:07:31.545Z,974.79
2017-05-18T11:08:33.900Z,974.79
2017-05-18T11:09:36.259Z,974.77
2017-05-18T11:10:39.170Z,974.77
2017-05-18T11:11:41.524Z,974.80
2017-05-18T11:12:43.877Z,974.81
2017-05-18T11:13:46.235Z,974.81
2017-05-18T11:14:48.592Z,974.83
2017-05-18T11:15:51.550Z,974.86
2017-05-18T11:16:53.923Z,974.85
2017-05-18T11:17:56.274Z,974.88
2017-05-18T11:18:58.635Z,974.94
2017-05-18T11:20:01.001Z,974.89
2017-05-18T11:21:03.958Z,974.96
2017-05-18T11:22:06.329Z,974.97
2017-05-18T11:23:08.678Z,974.93
2017-05-18T11:24:11.043Z,974.97
2017-05-18T11:25:13.399Z,974.99
2017-05-18T11:26:16.466Z,974.94
2017-05-18T11:27:18.818Z,974.99
2017-05-18T11:28:21.174Z,974.95
2017-05-18T11:29:23.534Z,974.97
2017-05-18T11:30:25.904Z,974.93
2017-05-18T11:31:28.962Z,974.99
2017-05-18T11:32:31.325Z,974.98
2017-05-18T11:33:33.681Z,974.98
2017-05-18T11:34:36.039Z,974.99
2017-05-18T11:35:38.402Z,975.02
2017-05-18T11:36:41.461Z,975.01
2017-05-18T11:37:43.817Z,975.03
2017-05-18T11:38:46.173Z,975.07
2017-05-18T11:39:48.534Z,975.05
2017-05-18T11:40:50.889Z,975.08
2017-05-18T11:41:53.951Z,975.07
2017-05-18T11:42:56.317Z,975.11
2017-05-18T11:43:58.690Z,975.08
2017-05-18T11:45:01.048Z,975.14
2017-05-18T11:46:03.404Z,975.11
2017-05-18T11:47:06.363Z,975.11
2017-05-18T11:48:08.721Z,975.16
2017-05-18T11:49:11.083Z,975.20
2017-05-18T11:50:13.439Z,975.19
2017-05-18T11:51:15.803Z,975.22
2017-05-18T11:52:18.765Z,975.27
2017-05-18T11:53:21.119Z,975.27
2017-05-18T11:54:23.484Z,975.25
2017-05-18T11:55:25.847Z,975.28
2017-05-18T11:56:28.214Z,975.24
2017-05-18T11:57:31.280Z,975.26
2017-05-18T11:58:33.631Z,975.30
2017-05-18T11:59:35.998Z,975.30
2017-05-18T12:00:38.359Z,975.29
2017-05-18T12:01:40.727Z,975.33
2017-05-18T12:02:43.790Z,975.38
2017-05-18T12:03:46.151Z,975.35
2017-05-18T12:04:48.505Z,975.36
2017-05-18T12:05:50.868Z,975.40
2017-05-18T12:06:53.228Z,975.41
2017-05-18T12:07:56.195Z,975.40
2017-05-18T12:08:58.547Z,975.46
2017-05-18T12:10:00.906Z,975.46
2017-05-18T12:11:03.276Z,975.47
2017-05-18T12:12:05.642Z,975.48
2017-05-18T12:13:08.598Z,975.48
2017-05-18T12:14:10.961Z,975.50
2017-05-18T12:15:13.317Z,975.51
2017-05-18T12:16:15.681Z,975.52
2017-05-18T12:17:18.050Z,975.54
2017-05-18T12:18:21.016Z,975.57
2017-05-18T12:19:23.374Z,975.60
2017-05-18T12:20:25.746Z,975.64
2017-05-18T12:21:28.109Z,975.66
2017-05-18T12:22:30.469Z,975.69
2017-05-18T12:23:33.429Z,975.70
2017-05-18T12:24:35.813Z,975.74
2017-05-18T12:25:38.169Z,975.79
2017-05-18T12:26:40.530Z,975.82
2017-05-18T12:27:42.895Z,975.80
2017-05-18T12:28:45.809Z,975.89
2017-05-18T12:29:48.171Z,975.92
2017-05-18T12:30:50.536Z,975.93
2017-05-18T12:31:52.899Z,975.98
2017-05-18T12:32:55.262Z,975.94
2017-05-18T12:33:58.220Z,975.99
2017-05-18T12:35:00.583Z,975.97
2017-05-18T12:36:02.944Z,976.03
2017-05-18T12:37:05.303Z,976.01
2017-05-18T12:38:07.666Z,975.95
2017-05-18T12:39:10.580Z,976.00
2017-05-18T12:40:12.944Z,976.01
2017-05-18T12:41:15.307Z,976.05
2017-05-18T12:42:17.672Z,976.09
2017-05-18T12:43:20.039Z,976.06
2017-05-18T12:44:22.961Z,976.02
2017-05-18T12:45:25.313Z,976.04
2017-05-18T12:46:27.678Z,976.10
2017-05-18T12:47:30.037Z,976.10
2017-05-18T12:48:32.397Z,976.08
2017-05-18T12:49:35.465Z,976.12
2017-05-18T12:50:37.831Z,976.11
2017-05-18T12:51:40.191Z,976.16
2017-05-18T12:52:42.559Z,976.17
2017-05-18T12:53:44.926Z,976.11
2017-05-18T12:54:47.988Z,976.15
2017-05-18T12:55:50.364Z,976.15
2017-05-18T12:56:52.742Z,976.15
2017-05-18T12:57:55.100Z,976.22
2017-05-18T12:58:57.459Z,976.21
2017-05-18T13:00:00.435Z,976.20
2017-05-18T13:01:02.803Z,976.20
2017-05-18T13:02:05.158Z,976.16
2017-05-18T13:03:07.529Z,976.21